Terminal Aerodrome Forecast
Issued by NWS Sterling, VA

Home | Current Version | Previous Version | Text Only | Print | Product List | Glossary On
Versions: 1 2 3 4 5 6 7 8 9 10 11 12 13 14 15 16 17 18 19 20 21 22 23 24 25 26 27
000
FTUS41 KLWX 310223 AAA
TAFBWI
TAF AMD
KBWI 310223Z 3102/0106 14007KT P6SM -SHRA SCT050 BKN120
     FM310300 VRB04KT P6SM BKN060
     FM311300 29006KT P6SM BKN200
     FM311900 25007KT P6SM BKN060
     FM312200 15006KT P6SM BKN080=

USA.gov is the U.S. government's official web portal to all federal, state and local government web resources and services.